createdAt,value
2022-12-09T00:00:15.424Z,20.62
2022-12-09T00:01:21.519Z,20.60
2022-12-09T00:02:23.419Z,20.42
2022-12-09T00:03:25.329Z,20.78
2022-12-09T00:04:27.333Z,20.65
2022-12-09T00:05:29.391Z,20.48
2022-12-09T00:06:33.512Z,20.68
2022-12-09T00:07:36.575Z,20.75
2022-12-09T00:08:38.489Z,20.79
2022-12-09T00:09:40.344Z,20.56
2022-12-09T00:10:45.021Z,20.92
2022-12-09T00:11:46.753Z,20.93
2022-12-09T00:12:48.740Z,20.60
2022-12-09T00:13:56.276Z,20.92
2022-12-09T00:14:58.240Z,20.59
2022-12-09T00:16:00.207Z,20.74
2022-12-09T00:17:01.987Z,20.89
2022-12-09T00:18:04.327Z,21.20
2022-12-09T00:19:07.426Z,20.82
2022-12-09T00:20:09.963Z,21.18
2022-12-09T00:21:18.498Z,20.76
2022-12-09T00:22:20.192Z,20.66
2022-12-09T00:23:22.300Z,20.53
2022-12-09T00:24:24.015Z,20.74
2022-12-09T00:25:25.811Z,20.89
2022-12-09T00:26:28.079Z,20.93
2022-12-09T00:27:29.908Z,21.16
2022-12-09T00:28:31.898Z,21.22
2022-12-09T00:29:33.788Z,20.64
2022-12-09T00:30:35.998Z,20.85
2022-12-09T00:31:38.854Z,20.85
2022-12-09T00:32:41.364Z,20.60
2022-12-09T00:33:43.834Z,20.92
2022-12-09T00:34:45.536Z,20.99
2022-12-09T00:35:47.397Z,20.96
2022-12-09T00:36:49.117Z,20.96
2022-12-09T00:37:50.968Z,20.73
2022-12-09T00:38:54.573Z,20.94
2022-12-09T00:39:56.342Z,20.84
2022-12-09T00:40:58.067Z,21.23
2022-12-09T00:41:59.966Z,20.83
2022-12-09T00:43:03.316Z,21.09
2022-12-09T00:44:05.548Z,20.97
2022-12-09T00:45:08.499Z,21.23
2022-12-09T00:46:12.559Z,21.08
2022-12-09T00:47:14.643Z,20.96
2022-12-09T00:48:16.384Z,21.11
2022-12-09T00:49:19.139Z,20.89
2022-12-09T00:50:21.586Z,21.34
2022-12-09T00:51:25.201Z,21.04
2022-12-09T00:52:28.483Z,21.15
2022-12-09T00:53:30.585Z,21.07
2022-12-09T00:54:32.815Z,21.04
2022-12-09T00:55:34.667Z,21.10
2022-12-09T00:56:36.754Z,21.00
2022-12-09T00:57:40.513Z,21.10
2022-12-09T00:58:42.380Z,20.99
2022-12-09T00:59:44.574Z,20.92
2022-12-09T01:00:46.309Z,20.97
2022-12-09T01:01:48.126Z,20.87
2022-12-09T01:02:50.035Z,21.05
2022-12-09T01:03:52.101Z,20.85
2022-12-09T01:04:54.270Z,20.82
2022-12-09T01:05:56.479Z,21.29
2022-12-09T01:06:58.264Z,21.34
2022-12-09T01:08:02.653Z,21.06
2022-12-09T01:09:04.773Z,20.88
2022-12-09T01:10:08.189Z,21.43
2022-12-09T01:11:22.630Z,21.39
2022-12-09T01:12:24.555Z,21.07
2022-12-09T01:13:26.546Z,20.86
2022-12-09T01:14:28.364Z,21.02
2022-12-09T01:15:31.207Z,21.38
2022-12-09T01:16:34.999Z,21.38
2022-12-09T01:17:38.412Z,20.91
2022-12-09T01:18:40.493Z,20.92
2022-12-09T01:19:42.336Z,21.29
2022-12-09T01:20:44.288Z,21.19
2022-12-09T01:21:46.334Z,21.34
2022-12-09T01:22:48.309Z,21.03
2022-12-09T01:23:50.218Z,20.98
2022-12-09T01:24:52.035Z,21.17
2022-12-09T01:25:53.887Z,21.06
2022-12-09T01:26:55.961Z,21.15
2022-12-09T01:27:58.065Z,21.24
2022-12-09T01:28:59.778Z,21.04
2022-12-09T01:30:01.657Z,21.07
2022-12-09T01:31:10.146Z,21.34
2022-12-09T01:32:12.056Z,21.33
2022-12-09T01:33:14.437Z,21.01
2022-12-09T01:34:16.257Z,21.55
2022-12-09T01:35:18.301Z,21.16
2022-12-09T01:36:23.997Z,21.07
2022-12-09T01:37:25.984Z,21.32
2022-12-09T01:38:27.761Z,21.14
2022-12-09T01:39:29.599Z,21.45
2022-12-09T01:40:31.549Z,21.19
2022-12-09T01:41:34.455Z,21.36
2022-12-09T01:42:36.944Z,20.94
2022-12-09T01:43:40.287Z,21.55
2022-12-09T01:45:20.682Z,21.69
2022-12-09T01:46:24.555Z,20.95
2022-12-09T01:47:26.597Z,21.01
2022-12-09T01:48:31.805Z,21.17
2022-12-09T01:49:42.522Z,21.16
2022-12-09T01:51:10.773Z,21.60
2022-12-09T01:52:21.339Z,21.18
2022-12-09T01:53:27.429Z,21.27
2022-12-09T01:54:30.794Z,21.46
2022-12-09T01:55:33.591Z,21.06
2022-12-09T01:56:37.198Z,21.21
2022-12-09T01:57:43.703Z,21.24
2022-12-09T01:58:47.368Z,21.65
2022-12-09T01:59:49.969Z,21.18
2022-12-09T02:00:52.133Z,21.24
2022-12-09T02:01:59.445Z,21.58
2022-12-09T02:03:02.691Z,21.11
2022-12-09T02:04:05.963Z,21.46
2022-12-09T02:05:08.736Z,21.55
2022-12-09T02:06:11.434Z,21.55
2022-12-09T02:07:14.471Z,21.27
2022-12-09T02:08:18.905Z,21.59
2022-12-09T02:09:25.019Z,21.47
2022-12-09T02:10:30.516Z,21.22
2022-12-09T02:11:53.377Z,21.69
2022-12-09T02:13:41.944Z,21.20
2022-12-09T02:14:59.065Z,21.23
2022-12-09T02:16:05.351Z,21.36
2022-12-09T02:17:39.258Z,21.66
2022-12-09T02:18:55.790Z,21.30
2022-12-09T02:20:10.458Z,21.71
2022-12-09T02:21:35.127Z,21.22
2022-12-09T02:22:45.291Z,21.65
2022-12-09T02:23:56.061Z,21.45
2022-12-09T02:25:10.860Z,21.42
2022-12-09T02:26:25.196Z,21.34
2022-12-09T02:27:35.519Z,21.72
2022-12-09T02:28:47.182Z,21.32
2022-12-09T02:30:08.533Z,21.49
2022-12-09T02:31:38.537Z,21.35
2022-12-09T02:32:58.556Z,21.58
2022-12-09T02:34:07.340Z,21.46
2022-12-09T02:35:19.542Z,21.48
2022-12-09T02:36:26.044Z,21.59
2022-12-09T02:37:38.662Z,21.38
2022-12-09T02:38:43.718Z,21.85
2022-12-09T02:39:55.140Z,21.79
2022-12-09T02:41:06.970Z,21.91
2022-12-09T02:42:17.058Z,21.92
2022-12-09T02:43:24.863Z,21.86
2022-12-09T02:44:30.826Z,21.86
2022-12-09T02:45:34.152Z,21.62
2022-12-09T02:46:39.617Z,21.67
2022-12-09T02:47:49.726Z,21.56
2022-12-09T02:48:59.311Z,22.08
2022-12-09T02:50:06.489Z,21.43
2022-12-09T02:51:17.333Z,21.59
2022-12-09T02:52:19.915Z,21.96
2022-12-09T02:53:24.629Z,21.88
2022-12-09T02:54:30.825Z,21.48
2022-12-09T02:55:34.291Z,21.59
2022-12-09T02:56:37.332Z,21.67
2022-12-09T02:57:40.735Z,21.86
2022-12-09T02:58:44.519Z,21.76
2022-12-09T02:59:55.355Z,21.53
2022-12-09T03:00:58.254Z,21.84
2022-12-09T03:02:21.808Z,21.65
2022-12-09T03:03:24.629Z,21.69
2022-12-09T03:04:28.719Z,21.78
2022-12-09T03:05:34.365Z,21.55
2022-12-09T03:06:42.663Z,21.64
2022-12-09T03:08:07.098Z,21.96
2022-12-09T03:09:28.725Z,22.04
2022-12-09T03:10:41.215Z,21.74
2022-12-09T03:11:43.277Z,21.75
2022-12-09T03:12:52.984Z,21.67
2022-12-09T03:14:09.940Z,21.60
2022-12-09T03:15:16.104Z,21.93
2022-12-09T03:16:31.935Z,21.51
2022-12-09T03:17:37.073Z,21.95
2022-12-09T03:18:44.614Z,22.08
2022-12-09T03:19:52.952Z,22.01
2022-12-09T03:20:55.501Z,21.95
2022-12-09T03:22:09.174Z,21.83
2022-12-09T03:23:15.596Z,21.81
2022-12-09T03:24:26.566Z,21.74
2022-12-09T03:25:33.187Z,21.89
2022-12-09T03:26:38.358Z,21.92
2022-12-09T03:27:51.535Z,22.00
2022-12-09T03:28:55.896Z,21.83
2022-12-09T03:30:00.242Z,22.16
2022-12-09T03:31:07.387Z,21.63
2022-12-09T03:32:14.662Z,22.26
2022-12-09T03:33:18.835Z,22.14
2022-12-09T03:34:26.346Z,22.15
2022-12-09T03:35:42.575Z,21.92
2022-12-09T03:36:48.572Z,21.95
2022-12-09T03:37:52.024Z,21.71
2022-12-09T03:38:54.974Z,22.26
2022-12-09T03:39:58.085Z,21.81
2022-12-09T03:41:20.112Z,22.00
2022-12-09T03:42:26.691Z,22.11
2022-12-09T03:43:33.665Z,22.20
2022-12-09T03:45:04.409Z,22.12
2022-12-09T03:46:07.708Z,21.72
2022-12-09T03:47:10.620Z,22.42
2022-12-09T03:48:12.784Z,22.21
2022-12-09T03:49:15.421Z,22.12
2022-12-09T03:50:18.125Z,22.28
2022-12-09T03:51:30.350Z,22.12
2022-12-09T03:52:46.082Z,22.31
2022-12-09T03:53:58.823Z,22.17
2022-12-09T03:55:07.731Z,22.26
2022-12-09T03:56:12.451Z,22.42
2022-12-09T03:57:19.464Z,22.36
2022-12-09T03:58:21.980Z,21.97
2022-12-09T03:59:25.869Z,22.05
2022-12-09T04:00:28.191Z,22.36
2022-12-09T04:01:32.039Z,22.20
2022-12-09T04:02:34.305Z,22.42
2022-12-09T04:03:36.252Z,22.48
2022-12-09T04:04:42.284Z,22.04
2022-12-09T04:05:44.541Z,22.53
2022-12-09T04:06:48.173Z,22.31
2022-12-09T04:07:50.148Z,22.09
2022-12-09T04:08:54.453Z,22.46
2022-12-09T04:09:58.930Z,22.57
2022-12-09T04:11:00.914Z,22.51
2022-12-09T04:12:02.977Z,22.26
2022-12-09T04:13:05.093Z,22.25
2022-12-09T04:14:10.584Z,22.14
2022-12-09T04:15:17.014Z,22.38
2022-12-09T04:16:18.896Z,22.35
2022-12-09T04:17:21.014Z,22.55
2022-12-09T04:18:23.334Z,22.49
2022-12-09T04:19:25.348Z,22.39
2022-12-09T04:20:27.442Z,22.27
2022-12-09T04:21:29.520Z,22.64
2022-12-09T04:22:31.311Z,22.37
2022-12-09T04:23:35.655Z,22.43
2022-12-09T04:24:41.187Z,22.54
2022-12-09T04:25:43.206Z,22.42
2022-12-09T04:26:45.749Z,22.90
2022-12-09T04:27:47.515Z,22.68
2022-12-09T04:28:50.201Z,22.36
2022-12-09T04:29:51.965Z,22.29
2022-12-09T04:30:54.203Z,22.40
2022-12-09T04:31:56.406Z,22.53
2022-12-09T04:33:00.142Z,22.28
2022-12-09T04:34:08.333Z,22.77
2022-12-09T04:35:11.239Z,22.59
2022-12-09T04:36:15.966Z,22.49
2022-12-09T04:37:17.959Z,22.28
2022-12-09T04:38:19.678Z,22.56
2022-12-09T04:39:21.317Z,22.75
2022-12-09T04:40:24.730Z,22.63
2022-12-09T04:41:26.845Z,22.67
2022-12-09T04:42:29.138Z,22.39
2022-12-09T04:43:31.498Z,22.72
2022-12-09T04:44:33.604Z,22.41
2022-12-09T04:45:36.949Z,22.66
2022-12-09T04:46:38.790Z,22.63
2022-12-09T04:47:40.558Z,22.71
2022-12-09T04:48:42.671Z,22.61
2022-12-09T04:49:44.356Z,22.71
2022-12-09T04:50:46.077Z,22.61
2022-12-09T04:51:47.892Z,22.61
2022-12-09T04:52:49.642Z,22.84
2022-12-09T04:53:51.446Z,22.98
2022-12-09T04:54:53.320Z,22.75
2022-12-09T04:56:12.092Z,22.74
2022-12-09T04:57:13.849Z,22.56
2022-12-09T04:58:15.631Z,22.79
2022-12-09T04:59:17.429Z,22.57
2022-12-09T05:00:20.133Z,22.64
2022-12-09T05:01:28.450Z,22.64
2022-12-09T05:02:32.861Z,22.48
2022-12-09T05:03:36.003Z,22.58
2022-12-09T05:04:38.568Z,22.42
2022-12-09T05:05:40.954Z,22.93
2022-12-09T05:06:43.295Z,22.81
2022-12-09T05:07:46.886Z,22.74
2022-12-09T05:08:50.489Z,22.95
2022-12-09T05:09:52.440Z,22.81
2022-12-09T05:10:54.630Z,22.48
2022-12-09T05:11:59.929Z,22.56
2022-12-09T05:13:02.116Z,22.69
2022-12-09T05:14:04.344Z,22.50
2022-12-09T05:15:07.049Z,22.87
2022-12-09T05:16:16.002Z,22.45
2022-12-09T05:17:18.972Z,22.58
2022-12-09T05:18:21.136Z,22.78
2022-12-09T05:19:23.522Z,22.32
2022-12-09T05:20:29.894Z,22.87
2022-12-09T05:21:31.968Z,22.58
2022-12-09T05:22:34.137Z,22.59
2022-12-09T05:23:36.339Z,22.56
2022-12-09T05:24:38.300Z,22.81
2022-12-09T05:25:40.570Z,22.95
2022-12-09T05:26:42.404Z,22.83
2022-12-09T05:27:44.502Z,22.73
2022-12-09T05:28:46.862Z,22.82
2022-12-09T05:29:48.820Z,22.52
2022-12-09T05:30:50.700Z,22.79
2022-12-09T05:31:53.228Z,22.59
2022-12-09T05:32:55.338Z,22.73
2022-12-09T05:33:59.185Z,22.55
2022-12-09T05:35:01.107Z,22.68
2022-12-09T05:36:03.710Z,22.70
2022-12-09T05:37:05.506Z,22.86
2022-12-09T05:38:07.394Z,22.83
2022-12-09T05:39:09.433Z,22.81
2022-12-09T05:40:12.508Z,22.72
2022-12-09T05:41:14.851Z,22.75
2022-12-09T05:42:17.209Z,22.96
2022-12-09T05:43:19.429Z,22.80
2022-12-09T05:44:21.501Z,22.73
2022-12-09T05:45:23.430Z,22.93
2022-12-09T05:46:25.203Z,22.75
2022-12-09T05:47:27.109Z,22.62
2022-12-09T05:48:30.213Z,22.61
2022-12-09T05:49:32.261Z,23.04
2022-12-09T05:50:34.215Z,22.88
2022-12-09T05:51:36.216Z,23.07
2022-12-09T05:52:38.406Z,22.69
2022-12-09T05:53:40.336Z,22.96
2022-12-09T05:54:42.497Z,22.69
2022-12-09T05:55:44.384Z,22.55
2022-12-09T05:56:48.904Z,22.59
2022-12-09T05:57:51.677Z,22.50
2022-12-09T05:58:55.186Z,22.86
2022-12-09T05:59:57.392Z,22.63
2022-12-09T06:01:07.235Z,22.59
2022-12-09T06:02:10.369Z,22.89
2022-12-09T06:03:13.559Z,22.79
2022-12-09T06:04:15.557Z,22.86
2022-12-09T06:05:18.303Z,22.97
2022-12-09T06:06:23.008Z,22.96
2022-12-09T06:07:25.122Z,22.79
2022-12-09T06:08:27.475Z,22.91
2022-12-09T06:09:29.446Z,23.12
2022-12-09T06:10:32.467Z,22.70
2022-12-09T06:11:34.849Z,22.82
2022-12-09T06:12:36.985Z,22.72
2022-12-09T06:13:38.860Z,22.97
2022-12-09T06:14:41.018Z,22.55
2022-12-09T06:15:43.094Z,22.49
2022-12-09T06:16:44.902Z,22.67
2022-12-09T06:17:47.469Z,22.94
2022-12-09T06:18:50.487Z,22.57
2022-12-09T06:19:52.760Z,22.87
2022-12-09T06:20:54.641Z,22.36
2022-12-09T06:21:56.609Z,22.56
2022-12-09T06:22:58.543Z,22.44
2022-12-09T06:24:00.784Z,22.57
2022-12-09T06:25:02.559Z,22.44
2022-12-09T06:26:05.078Z,22.24
2022-12-09T06:27:07.025Z,22.21
2022-12-09T06:28:08.861Z,22.43
2022-12-09T06:29:10.649Z,22.03
2022-12-09T06:30:12.584Z,22.24
2022-12-09T06:31:15.479Z,22.32
2022-12-09T06:32:18.037Z,22.28
2022-12-09T06:33:45.934Z,21.92
2022-12-09T06:34:41.558Z,22.04
2022-12-09T06:35:43.450Z,21.81
2022-12-09T06:36:45.775Z,22.07
2022-12-09T06:37:47.645Z,21.84
2022-12-09T06:38:49.580Z,21.86
2022-12-09T06:39:51.498Z,21.92
2022-12-09T06:40:53.270Z,21.81
2022-12-09T06:41:54.972Z,22.04
2022-12-09T06:42:57.098Z,21.70
2022-12-09T06:44:00.058Z,21.71
2022-12-09T06:45:01.966Z,21.79
2022-12-09T06:46:11.204Z,21.71
2022-12-09T06:47:13.297Z,21.75
2022-12-09T06:48:15.254Z,21.64
2022-12-09T06:49:17.560Z,21.84
2022-12-09T06:50:19.920Z,21.59
2022-12-09T06:51:23.690Z,21.71
2022-12-09T06:52:25.862Z,21.62
2022-12-09T06:53:27.738Z,21.46
2022-12-09T06:54:29.701Z,21.45
2022-12-09T06:55:31.717Z,21.42
2022-12-09T06:56:33.953Z,21.54
2022-12-09T06:57:36.338Z,21.16
2022-12-09T06:58:38.588Z,21.35
2022-12-09T06:59:40.456Z,21.27
2022-12-09T07:00:42.863Z,21.14
2022-12-09T07:01:45.803Z,21.43
2022-12-09T07:02:47.894Z,21.47
2022-12-09T07:03:52.603Z,21.35
2022-12-09T07:04:55.823Z,21.18
2022-12-09T07:05:58.649Z,21.21
2022-12-09T07:07:00.787Z,21.33
2022-12-09T07:08:02.906Z,21.26
2022-12-09T07:09:19.753Z,21.17
2022-12-09T07:10:21.752Z,21.01
2022-12-09T07:11:24.761Z,21.10
2022-12-09T07:12:26.694Z,21.40
2022-12-09T07:13:28.824Z,21.04
2022-12-09T07:14:30.758Z,21.13
2022-12-09T07:15:32.760Z,21.02
2022-12-09T07:16:35.399Z,21.25
2022-12-09T07:17:37.706Z,21.28
2022-12-09T07:18:39.806Z,21.38
2022-12-09T07:19:41.760Z,21.19
2022-12-09T07:20:44.041Z,21.24
2022-12-09T07:21:46.294Z,21.02
2022-12-09T07:22:48.401Z,21.25
2022-12-09T07:23:51.141Z,20.91
2022-12-09T07:24:53.500Z,20.96
2022-12-09T07:25:58.622Z,21.06
2022-12-09T07:27:04.730Z,21.23
2022-12-09T07:28:10.304Z,20.96
2022-12-09T07:29:12.231Z,21.32
2022-12-09T07:30:14.265Z,20.85
2022-12-09T07:31:22.406Z,21.14
2022-12-09T07:32:24.498Z,20.59
2022-12-09T07:33:27.050Z,21.14
2022-12-09T07:34:29.245Z,21.01
2022-12-09T07:35:31.511Z,21.16
2022-12-09T07:36:35.781Z,20.95
2022-12-09T07:37:38.032Z,21.15
2022-12-09T07:38:39.852Z,21.47
2022-12-09T07:39:41.833Z,20.92
2022-12-09T07:40:43.751Z,21.15
2022-12-09T07:41:47.806Z,20.94
2022-12-09T07:42:51.750Z,21.23
2022-12-09T07:43:57.240Z,21.17
2022-12-09T07:44:59.114Z,20.84
2022-12-09T07:46:06.096Z,20.96
2022-12-09T07:47:08.522Z,21.10
2022-12-09T07:48:11.083Z,20.99
2022-12-09T07:49:13.038Z,21.25
2022-12-09T07:50:14.962Z,21.28
2022-12-09T07:51:17.106Z,20.97
2022-12-09T07:52:19.800Z,21.06
2022-12-09T07:53:21.681Z,21.00
2022-12-09T07:54:23.901Z,21.15
2022-12-09T07:55:25.701Z,20.93
2022-12-09T07:56:28.669Z,21.16
2022-12-09T07:57:31.119Z,20.99
2022-12-09T07:58:33.734Z,20.99
2022-12-09T07:59:35.490Z,21.21
2022-12-09T08:00:37.251Z,21.03
2022-12-09T08:01:40.012Z,20.87
2022-12-09T08:02:42.150Z,20.93
2022-12-09T08:03:44.370Z,20.96
2022-12-09T08:04:46.410Z,21.11
2022-12-09T08:05:53.685Z,20.93
2022-12-09T08:06:56.092Z,20.90
2022-12-09T08:07:58.527Z,21.23
2022-12-09T08:09:02.408Z,20.89
2022-12-09T08:10:05.426Z,20.92
2022-12-09T08:11:19.926Z,20.96
2022-12-09T08:12:24.965Z,20.93
2022-12-09T08:13:26.654Z,21.06
2022-12-09T08:14:28.488Z,21.18
2022-12-09T08:15:30.367Z,21.13
2022-12-09T08:16:32.755Z,21.01
2022-12-09T08:17:34.961Z,20.95
2022-12-09T08:18:38.149Z,21.12
2022-12-09T08:19:40.374Z,20.93
2022-12-09T08:20:42.695Z,20.88
2022-12-09T08:21:48.417Z,20.84
2022-12-09T08:22:53.164Z,20.96
2022-12-09T08:23:57.530Z,21.09
2022-12-09T08:24:59.603Z,21.11
2022-12-09T08:26:01.808Z,20.84
2022-12-09T08:27:03.779Z,20.52
2022-12-09T08:28:06.343Z,20.93
2022-12-09T08:29:10.361Z,20.83
2022-12-09T08:30:13.562Z,21.47
2022-12-09T08:31:18.735Z,20.96
2022-12-09T08:32:21.014Z,20.93
2022-12-09T08:33:23.181Z,21.04
2022-12-09T08:34:25.561Z,21.01
2022-12-09T08:35:29.968Z,20.81
2022-12-09T08:36:32.473Z,21.12
2022-12-09T08:37:34.536Z,21.04
2022-12-09T08:38:36.466Z,21.04
2022-12-09T08:39:38.667Z,20.90
2022-12-09T08:40:40.790Z,21.16
2022-12-09T08:41:43.325Z,20.77
2022-12-09T08:42:45.827Z,21.07
2022-12-09T08:43:48.429Z,21.06
2022-12-09T08:44:51.830Z,21.03
2022-12-09T08:46:00.181Z,20.89
2022-12-09T08:47:02.178Z,21.03
2022-12-09T08:48:04.620Z,21.07
2022-12-09T08:49:08.184Z,21.02
2022-12-09T08:50:10.776Z,20.80
2022-12-09T08:51:13.318Z,20.85
2022-12-09T08:52:15.180Z,21.05
2022-12-09T08:53:17.258Z,20.83
2022-12-09T08:54:19.300Z,20.74
2022-12-09T08:55:21.591Z,20.82
2022-12-09T08:56:23.906Z,20.79
2022-12-09T08:57:26.230Z,20.91
2022-12-09T08:58:28.132Z,20.80
2022-12-09T08:59:30.196Z,21.24
2022-12-09T09:00:32.394Z,20.59
2022-12-09T09:01:35.796Z,20.43
2022-12-09T09:02:38.318Z,20.76
2022-12-09T09:03:40.799Z,20.88
2022-12-09T09:04:43.383Z,20.71
2022-12-09T09:05:45.561Z,20.76
2022-12-09T09:06:50.256Z,21.12
2022-12-09T09:07:52.511Z,20.67
2022-12-09T09:08:57.421Z,20.88
2022-12-09T09:10:01.517Z,20.63
2022-12-09T09:11:10.478Z,20.69
2022-12-09T09:12:12.742Z,20.79
2022-12-09T09:13:14.934Z,20.96
2022-12-09T09:14:17.440Z,20.84
2022-12-09T09:15:19.449Z,20.84
2022-12-09T09:16:23.871Z,20.97
2022-12-09T09:17:27.458Z,20.88
2022-12-09T09:18:29.408Z,20.98
2022-12-09T09:19:31.946Z,20.79
2022-12-09T09:20:33.931Z,20.94
2022-12-09T09:21:36.781Z,20.97
2022-12-09T09:22:39.014Z,20.99
2022-12-09T09:23:42.038Z,20.83
2022-12-09T09:24:44.305Z,20.88
2022-12-09T09:25:46.345Z,21.08
2022-12-09T09:26:50.906Z,20.84
2022-12-09T09:27:53.007Z,20.96
2022-12-09T09:28:56.482Z,20.86
2022-12-09T09:29:58.821Z,20.79
2022-12-09T09:31:02.497Z,20.94
2022-12-09T09:32:04.906Z,20.81
2022-12-09T09:33:07.895Z,20.60
2022-12-09T09:34:11.211Z,20.90
2022-12-09T09:35:13.673Z,20.74
2022-12-09T09:36:22.922Z,20.73
2022-12-09T09:37:25.865Z,20.85
2022-12-09T09:38:28.892Z,20.74
2022-12-09T09:39:30.832Z,20.87
2022-12-09T09:40:33.840Z,20.91
2022-12-09T09:41:47.321Z,20.97
2022-12-09T09:42:52.445Z,20.88
2022-12-09T09:43:56.779Z,21.00
2022-12-09T09:45:00.910Z,20.59
2022-12-09T09:46:05.264Z,20.74
2022-12-09T09:47:17.584Z,20.68
2022-12-09T09:48:24.609Z,20.50
2022-12-09T09:49:38.544Z,20.91
2022-12-09T09:51:10.489Z,20.90
2022-12-09T09:52:19.877Z,20.61
2022-12-09T09:53:33.598Z,20.61
2022-12-09T09:54:36.301Z,20.80
2022-12-09T09:56:23.335Z,20.56
2022-12-09T09:57:48.020Z,20.75
2022-12-09T09:59:23.141Z,20.60
2022-12-09T10:00:30.115Z,20.54
2022-12-09T10:01:36.558Z,20.52
2022-12-09T10:03:02.285Z,20.91
2022-12-09T10:04:38.409Z,20.86
2022-12-09T10:05:52.871Z,20.51
2022-12-09T10:07:08.367Z,20.66
2022-12-09T10:08:30.139Z,20.70
2022-12-09T10:10:04.309Z,20.76
2022-12-09T10:11:12.417Z,20.51
2022-12-09T10:12:32.759Z,20.57
2022-12-09T10:14:02.723Z,20.64
2022-12-09T10:15:15.095Z,20.56
2022-12-09T10:16:25.119Z,20.80
2022-12-09T10:17:59.778Z,20.68
2022-12-09T10:19:07.619Z,20.56
2022-12-09T10:20:17.369Z,20.81
2022-12-09T10:21:21.701Z,20.49
2022-12-09T10:22:29.022Z,20.47
2022-12-09T10:23:33.000Z,20.86
2022-12-09T10:24:40.099Z,20.68
2022-12-09T10:25:48.176Z,20.88
2022-12-09T10:27:11.833Z,20.79
2022-12-09T10:28:47.717Z,20.96
2022-12-09T10:30:02.613Z,20.72
2022-12-09T10:31:05.237Z,20.62
2022-12-09T10:32:17.042Z,20.75
2022-12-09T10:33:25.103Z,20.68
2022-12-09T10:34:27.504Z,20.83
2022-12-09T10:35:30.868Z,20.94
2022-12-09T10:36:36.077Z,20.89
2022-12-09T10:37:38.924Z,20.73
2022-12-09T10:38:41.960Z,20.74
2022-12-09T10:39:46.575Z,20.80
2022-12-09T10:41:08.022Z,20.97
2022-12-09T10:42:34.868Z,20.55
2022-12-09T10:43:41.214Z,20.93
2022-12-09T10:44:43.731Z,20.62
2022-12-09T10:47:40.301Z,20.96
2022-12-09T10:48:47.986Z,20.46
2022-12-09T10:49:52.832Z,20.79
2022-12-09T10:51:01.107Z,20.64
2022-12-09T10:52:05.354Z,20.88
2022-12-09T10:53:14.326Z,20.95
2022-12-09T10:54:21.734Z,20.71
2022-12-09T10:55:50.329Z,20.67
2022-12-09T10:57:23.482Z,20.45
2022-12-09T10:58:29.037Z,20.86
2022-12-09T10:59:31.400Z,20.66
2022-12-09T11:00:35.208Z,20.90
2022-12-09T11:02:22.335Z,20.65
2022-12-09T11:03:49.193Z,20.58
2022-12-09T11:04:51.350Z,20.77
2022-12-09T11:06:03.418Z,20.83
2022-12-09T11:07:11.899Z,20.78
2022-12-09T11:08:22.130Z,20.69
2022-12-09T11:09:30.082Z,20.86
2022-12-09T11:10:33.350Z,20.70
2022-12-09T11:11:42.908Z,20.98
2022-12-09T11:12:45.145Z,20.86
2022-12-09T11:13:48.185Z,20.74
2022-12-09T11:14:53.524Z,20.75
2022-12-09T11:15:59.635Z,21.15
2022-12-09T11:17:21.104Z,20.64
2022-12-09T11:18:41.126Z,20.71
2022-12-09T11:19:47.039Z,20.72
2022-12-09T11:21:29.742Z,21.00
2022-12-09T11:22:41.249Z,20.57
2022-12-09T11:23:58.814Z,20.63
2022-12-09T11:25:27.285Z,20.89
2022-12-09T11:26:36.811Z,20.73
2022-12-09T11:27:50.857Z,20.91
2022-12-09T11:29:14.927Z,20.73
2022-12-09T11:30:19.662Z,20.57
2022-12-09T11:31:32.597Z,20.99
2022-12-09T11:32:51.161Z,20.90
2022-12-09T11:34:04.337Z,20.90
2022-12-09T11:35:16.338Z,20.64
2022-12-09T11:36:25.687Z,20.80
2022-12-09T11:37:32.518Z,20.70
2022-12-09T11:38:38.930Z,20.51
2022-12-09T11:39:40.894Z,20.56
2022-12-09T11:40:43.931Z,21.00
2022-12-09T11:42:11.499Z,21.03
2022-12-09T11:43:18.464Z,20.89
2022-12-09T11:44:29.849Z,20.77
2022-12-09T11:45:36.485Z,20.73
2022-12-09T11:46:38.759Z,20.84
2022-12-09T11:48:22.671Z,20.71
2022-12-09T11:49:17.214Z,21.00
2022-12-09T11:50:22.629Z,20.86
2022-12-09T11:51:31.130Z,20.85
2022-12-09T11:52:33.172Z,21.03
2022-12-09T11:53:40.793Z,20.91
2022-12-09T11:55:00.800Z,21.06
2022-12-09T11:56:14.351Z,21.02
2022-12-09T11:57:27.978Z,20.98
2022-12-09T11:58:56.108Z,20.91
2022-12-09T12:00:02.014Z,20.84
2022-12-09T12:01:45.879Z,20.98
2022-12-09T12:02:51.155Z,21.00
2022-12-09T12:03:57.182Z,20.88
2022-12-09T12:05:24.849Z,20.74
2022-12-09T12:06:42.185Z,20.89
2022-12-09T12:08:13.826Z,20.70
2022-12-09T12:09:22.924Z,20.88
2022-12-09T12:10:28.822Z,20.93
2022-12-09T12:11:42.560Z,20.69
2022-12-09T12:12:56.263Z,20.80
2022-12-09T12:14:04.881Z,20.88
2022-12-09T12:15:23.745Z,20.87
2022-12-09T12:16:46.546Z,20.92
2022-12-09T12:17:55.976Z,20.72
2022-12-09T12:19:25.437Z,20.88
2022-12-09T12:21:04.648Z,20.47
2022-12-09T12:22:18.251Z,20.54
2022-12-09T12:23:20.031Z,20.56
2022-12-09T12:24:28.241Z,20.88
2022-12-09T12:25:48.068Z,20.63
2022-12-09T12:27:26.784Z,20.51
2022-12-09T12:28:31.537Z,20.40
2022-12-09T12:29:46.462Z,20.74
2022-12-09T12:31:07.336Z,20.60
2022-12-09T12:32:24.276Z,20.59
2022-12-09T12:35:20.037Z,20.58
2022-12-09T12:36:46.754Z,21.01
2022-12-09T12:38:16.193Z,21.00
2022-12-09T12:39:42.562Z,20.55
2022-12-09T12:41:01.730Z,20.69
2022-12-09T12:42:29.081Z,20.79
2022-12-09T12:43:59.202Z,20.80
2022-12-09T12:45:31.659Z,20.47
2022-12-09T12:47:04.249Z,20.83
2022-12-09T12:48:16.340Z,20.66
2022-12-09T12:49:43.065Z,20.69
2022-12-09T12:51:11.996Z,20.77
2022-12-09T12:52:46.991Z,20.43
2022-12-09T12:54:00.300Z,20.79
2022-12-09T12:55:22.445Z,20.95
2022-12-09T12:56:58.415Z,20.77
2022-12-09T12:58:09.639Z,20.51
2022-12-09T12:59:22.569Z,20.91
2022-12-09T13:00:28.803Z,20.86
2022-12-09T13:01:39.747Z,20.83
2022-12-09T13:03:35.390Z,20.60
2022-12-09T13:04:47.489Z,20.71
2022-12-09T13:05:52.553Z,20.84
2022-12-09T13:06:54.305Z,20.76
2022-12-09T13:08:09.268Z,20.79
2022-12-09T13:09:31.191Z,20.73
2022-12-09T13:10:43.787Z,20.60
2022-12-09T13:12:02.816Z,20.46
2022-12-09T13:13:14.371Z,20.86
2022-12-09T13:14:23.089Z,20.84
2022-12-09T13:15:43.398Z,20.57
2022-12-09T13:16:46.586Z,20.58
2022-12-09T13:17:49.638Z,20.78
2022-12-09T13:18:51.830Z,20.72
2022-12-09T13:19:58.779Z,20.73
2022-12-09T13:21:02.467Z,20.64
2022-12-09T13:22:04.588Z,20.71
2022-12-09T13:23:17.576Z,20.72
2022-12-09T13:24:43.913Z,20.59
2022-12-09T13:25:48.432Z,20.64
2022-12-09T13:26:55.080Z,20.90
2022-12-09T13:28:07.995Z,20.67
2022-12-09T13:29:30.624Z,20.62
2022-12-09T13:30:49.661Z,20.83
2022-12-09T13:32:22.259Z,20.53
2022-12-09T13:33:54.639Z,20.83
2022-12-09T13:35:26.246Z,20.78
2022-12-09T13:36:38.437Z,20.58
2022-12-09T13:37:42.908Z,20.58
2022-12-09T13:38:45.739Z,20.85
2022-12-09T13:39:50.250Z,20.70
2022-12-09T13:40:52.258Z,20.65
2022-12-09T13:42:12.884Z,20.61
2022-12-09T13:43:31.893Z,20.54
2022-12-09T13:44:36.602Z,20.67
2022-12-09T13:45:44.218Z,20.95
2022-12-09T13:46:46.155Z,20.75
2022-12-09T13:47:47.964Z,20.66
2022-12-09T13:48:50.700Z,20.69
2022-12-09T13:50:01.756Z,20.96
2022-12-09T13:51:03.794Z,20.83
2022-12-09T13:52:05.822Z,20.89
2022-12-09T13:53:35.267Z,20.68
2022-12-09T13:54:48.429Z,20.73
2022-12-09T13:55:57.738Z,20.70
2022-12-09T13:57:33.525Z,20.66
2022-12-09T13:59:02.868Z,20.58
2022-12-09T14:00:07.636Z,20.45
2022-12-09T14:01:12.394Z,20.79
2022-12-09T14:02:26.470Z,20.82
2022-12-09T14:03:33.163Z,20.68
2022-12-09T14:04:43.489Z,20.62
2022-12-09T14:05:47.502Z,20.79
2022-12-09T14:07:09.819Z,20.75
2022-12-09T14:08:26.882Z,20.66
2022-12-09T14:09:44.006Z,20.54
2022-12-09T14:10:49.229Z,20.57
2022-12-09T14:11:53.652Z,20.77
2022-12-09T14:12:55.380Z,21.04
2022-12-09T14:14:37.653Z,20.74
2022-12-09T14:15:40.126Z,20.66
2022-12-09T14:16:43.824Z,20.71
2022-12-09T14:17:59.063Z,20.86
2022-12-09T14:19:25.339Z,20.51
2022-12-09T14:20:33.276Z,20.65
2022-12-09T14:21:35.337Z,20.69
2022-12-09T14:22:39.682Z,20.83
2022-12-09T14:24:16.475Z,20.86
2022-12-09T14:25:28.341Z,20.51
2022-12-09T14:26:59.366Z,20.51
2022-12-09T14:28:10.065Z,20.52
2022-12-09T14:29:12.577Z,20.52
2022-12-09T14:30:23.419Z,20.64